Nashua River @ East Pepperell, Ma

Nashua River at East Pepperell
 Total Drainage Area: 316 sq. miles 
 Drainage Area Controlled by Corps Dams: 0 sq. miles (0%) 
 Warning Flow/Stage: 3,000 cfs / 6.5 feet 
 Flood Flow/Stage: 4,300 cfs / 8.0 feet 
Date Time
(Eastern)
Stage
(ft)
Flow
(cfs)
CSM
(cfs / sq. mi.)
Jan-31 01:30 pm 4.00 1,420 4.5
Jan-31 12:30 pm 4.01 1,425 4.5
Jan-31 11:30 am 4.01 1,425 4.5
Jan-31 10:30 am 4.03 1,436 4.5
Jan-31 09:30 am 4.04 1,441 4.6
Jan-31 08:30 am 4.06 1,452 4.6
Jan-31 07:30 am 4.07 1,458 4.6
Jan-31 06:30 am 4.07 1,458 4.6
Jan-31 05:30 am 4.08 1,463 4.6
Jan-31 04:30 am 4.11 1,479 4.7
Jan-31 03:30 am 4.11 1,479 4.7
Jan-31 02:30 am 4.12 1,485 4.7
Jan-31 01:30 am 4.13 1,490 4.7
Jan-31 12:30 am 4.16 1,507 4.8
Jan-30 11:30 pm 4.14 1,496 4.7
Jan-30 10:30 pm 4.17 1,512 4.8
Jan-30 09:30 pm 4.20 1,529 4.8
Jan-30 08:30 pm 4.21 1,534 4.9
Jan-30 07:30 pm 4.21 1,534 4.9
Jan-30 06:30 pm 4.21 1,534 4.9
Jan-30 05:30 pm 4.23 1,546 4.9
Jan-30 04:30 pm 4.26 1,562 4.9
Jan-30 03:30 pm 4.26 1,562 4.9
Jan-30 02:30 pm 4.30 1,585 5.0
Jan-30 01:30 pm 4.33 1,601 5.1
Report Generated January 31, 2023 02:31 pm